Time;durP1;ratioP1;P1;durP2;ratioP2;P2;SDS_P1;SDS_P2;PMS_P1;PMS_P2;Temp;Humidity;BMP_temperature;BMP_pressure;BME280_temperature;BME280_humidity;BME280_pressure;Samples;Min_cycle;Max_cycle;Signal;HPM_P1;HPM_P2
2020/12/08 00:01:55;;;;;;;0.40;0.30;;;;;;;4.72;91.08;100061.41;5013484;28;20468;-68
2020/12/08 00:04:21;;;;;;;1.23;1.17;;;;;;;4.73;90.82;100053.09;5013318;28;20456;-69
2020/12/08 00:06:47;;;;;;;0.73;0.70;;;;;;;4.77;90.20;100056.03;5013454;28;20436;-68
2020/12/08 00:09:13;;;;;;;0.60;0.50;;;;;;;4.74;90.32;100052.03;5013420;28;20476;-68
2020/12/08 00:11:39;;;;;;;1.90;1.03;;;;;;;4.66;91.57;100060.66;5013056;28;20945;-69
2020/12/08 00:14:05;;;;;;;0.57;0.57;;;;;;;4.66;91.40;100052.59;5013147;28;20492;-68
2020/12/08 00:16:32;;;;;;;0.70;0.70;;;;;;;4.71;91.19;100052.56;5013333;28;20472;-68
2020/12/08 00:18:58;;;;;;;3.13;1.33;;;;;;;4.73;90.89;100055.78;5012984;28;20514;-68
2020/12/08 00:21:25;;;;;;;0.40;0.30;;;;;;;4.63;91.40;100055.81;5013279;28;20831;-69
2020/12/08 00:23:51;;;;;;;0.50;0.50;;;;;;;4.64;91.77;100046.69;5013191;28;20464;-69
2020/12/08 00:26:17;;;;;;;3.30;1.47;;;;;;;4.71;92.65;100049.91;5013140;28;20543;-68
2020/12/08 00:28:43;;;;;;;0.40;0.27;;;;;;;4.66;93.45;100038.38;5012992;28;21019;-69
2020/12/08 00:31:10;;;;;;;0.83;0.77;;;;;;;4.72;94.07;100040.75;5012882;28;20475;-68
2020/12/08 00:33:37;;;;;;;1.70;1.03;;;;;;;4.76;94.06;100038.34;5013117;28;20573;-69
2020/12/08 00:36:03;;;;;;;0.50;0.40;;;;;;;4.83;93.84;100036.16;5013422;28;20459;-68
2020/12/08 00:38:29;;;;;;;0.60;0.50;;;;;;;4.78;94.15;100045.03;5019880;28;20463;-69
2020/12/08 00:40:56;;;;;;;0.40;0.30;;;;;;;4.92;93.52;100034.50;5032486;28;20465;-68
2020/12/08 00:43:22;;;;;;;0.40;0.30;;;;;;;4.89;93.55;100035.06;5032527;28;20518;-68
2020/12/08 00:45:48;;;;;;;1.33;0.93;;;;;;;4.89;94.13;100040.41;5035677;28;20454;-68
2020/12/08 00:48:14;;;;;;;0.90;0.50;;;;;;;4.87;94.03;100039.91;5036479;28;20439;-69
2020/12/08 00:50:41;;;;;;;0.40;0.40;;;;;;;4.88;94.44;100046.88;5036634;28;20861;-68
2020/12/08 00:53:07;;;;;;;0.60;0.57;;;;;;;4.96;93.93;100037.44;5036151;28;20541;-69
2020/12/08 00:55:33;;;;;;;0.40;0.40;;;;;;;4.99;93.72;100026.94;5036460;28;20514;-68
2020/12/08 00:58:00;;;;;;;0.40;0.30;;;;;;;4.88;93.11;100020.03;5036465;28;20474;-69
2020/12/08 01:00:26;;;;;;;0.40;0.30;;;;;;;4.83;92.69;100024.63;5036424;28;20439;-68
2020/12/08 01:02:52;;;;;;;0.40;0.30;;;;;;;4.86;92.84;100026.75;5036159;28;20994;-69
2020/12/08 01:05:18;;;;;;;1.03;0.87;;;;;;;4.93;92.71;100032.63;5036370;28;20922;-69
2020/12/08 01:07:45;;;;;;;1.53;0.67;;;;;;;4.92;92.65;100036.38;5035980;28;20443;-69
2020/12/08 01:10:11;;;;;;;1.87;0.90;;;;;;;4.88;92.69;100038.03;5036245;28;20435;-69
2020/12/08 01:12:38;;;;;;;1.00;0.90;;;;;;;4.90;92.04;100033.16;5035818;28;21073;-70
2020/12/08 01:15:04;;;;;;;1.93;0.87;;;;;;;4.86;92.68;100037.47;5036050;28;20546;-69
2020/12/08 01:17:32;;;;;;;0.40;0.30;;;;;;;4.83;93.13;100030.00;5035768;28;20845;-68
2020/12/08 01:19:58;;;;;;;1.07;0.50;;;;;;;4.87;92.91;100033.72;5036061;28;20508;-68
2020/12/08 01:22:24;;;;;;;0.40;0.30;;;;;;;4.91;93.19;100046.28;5035979;28;20435;-69
2020/12/08 01:24:51;;;;;;;0.50;0.40;;;;;;;4.99;93.45;100042.22;5065119;22;20558;-78
2020/12/08 01:27:18;;;;;;;0.40;0.30;;;;;;;5.03;93.38;100048.66;5056744;28;20492;-78
2020/12/08 01:29:44;;;;;;;0.40;0.30;;;;;;;4.92;94.01;100047.91;5056523;28;21006;-78
2020/12/08 01:32:10;;;;;;;2.40;0.77;;;;;;;4.90;94.84;100050.06;5085429;22;20494;-63
2020/12/08 01:34:37;;;;;;;0.50;0.40;;;;;;;5.00;94.62;100041.16;5062932;28;20478;-63
2020/12/08 01:37:03;;;;;;;0.83;0.83;;;;;;;5.07;94.12;100038.97;5063140;28;20446;-62
2020/12/08 01:39:29;;;;;;;0.97;0.53;;;;;;;5.05;94.41;100025.84;5063539;28;20504;-63
2020/12/08 01:41:57;;;;;;;2.30;1.60;;;;;;;5.09;94.64;100036.00;5063000;28;20442;-62
2020/12/08 01:44:24;;;;;;;2.77;1.37;;;;;;;5.20;94.32;100034.88;5063258;28;20438;-63
2020/12/08 01:46:50;;;;;;;1.90;0.97;;;;;;;5.26;93.87;100028.38;5063259;28;20512;-62
2020/12/08 01:49:18;;;;;;;1.47;0.87;;;;;;;5.14;94.59;100023.38;5064200;28;20838;-63
2020/12/08 01:51:44;;;;;;;0.83;0.83;;;;;;;5.20;94.35;100037.56;5064458;28;20494;-63
2020/12/08 01:54:10;;;;;;;0.67;0.67;;;;;;;5.21;94.58;100034.56;5066018;28;20482;-64
2020/12/08 01:56:37;;;;;;;2.17;1.90;;;;;;;5.23;94.07;100027.06;5064400;28;20463;-63
2020/12/08 01:59:05;;;;;;;6.37;2.00;;;;;;;5.21;93.63;100025.72;5066617;28;20456;-64
2020/12/08 02:01:31;;;;;;;0.40;0.30;;;;;;;5.19;92.79;100020.66;5065655;28;20460;-63
2020/12/08 02:03:58;;;;;;;1.40;0.83;;;;;;;5.16;92.40;100036.50;5065554;28;20858;-64
2020/12/08 02:06:25;;;;;;;0.40;0.30;;;;;;;5.21;91.17;100015.78;5064987;28;20454;-63
2020/12/08 02:08:51;;;;;;;0.50;0.33;;;;;;;5.20;91.09;100026.81;5064080;28;20505;-61
2020/12/08 02:11:18;;;;;;;0.70;0.63;;;;;;;5.17;91.26;100020.09;5062395;28;20496;-63
2020/12/08 02:13:44;;;;;;;0.70;0.70;;;;;;;5.17;91.12;100014.75;5065858;28;20482;-63
2020/12/08 02:16:11;;;;;;;0.50;0.40;;;;;;;5.19;90.80;100026.00;5067546;28;20466;-64
2020/12/08 02:18:37;;;;;;;0.63;0.50;;;;;;;5.19;90.95;100025.22;5066937;28;20439;-63
2020/12/08 02:21:05;;;;;;;1.27;1.10;;;;;;;5.18;91.27;100027.09;5067407;28;20496;-64
2020/12/08 02:23:31;;;;;;;0.40;0.30;;;;;;;5.22;91.85;100020.09;5066750;28;20443;-63
2020/12/08 02:25:59;;;;;;;3.80;1.17;;;;;;;5.20;92.47;100014.19;5066385;28;20454;-64
2020/12/08 02:28:26;;;;;;;0.70;0.50;;;;;;;5.29;93.12;100012.50;5066197;28;20438;-63
2020/12/08 02:30:53;;;;;;;0.77;0.77;;;;;;;5.38;93.68;100006.53;5065855;28;20446;-63
2020/12/08 02:33:22;;;;;;;0.40;0.30;;;;;;;5.44;94.20;100014.25;5065453;28;20532;-63
2020/12/08 02:35:48;;;;;;;9.83;1.70;;;;;;;5.54;94.76;100008.03;5066055;28;20462;-63
2020/12/08 02:38:15;;;;;;;2.00;1.90;;;;;;;5.61;94.98;100010.38;5066511;28;20438;-64
2020/12/08 02:40:41;;;;;;;0.60;0.53;;;;;;;5.64;95.27;99999.88;5065953;28;20434;-63
2020/12/08 02:43:07;;;;;;;0.50;0.40;;;;;;;5.71;95.57;100000.38;5065390;28;21005;-63
2020/12/08 02:45:33;;;;;;;2.87;2.20;;;;;;;5.75;95.95;99998.69;5064056;28;20458;-62
2020/12/08 02:48:00;;;;;;;3.70;1.80;;;;;;;5.79;96.06;100005.09;5065495;28;20443;-64
2020/12/08 02:50:26;;;;;;;1.50;1.40;;;;;;;5.84;96.43;100004.25;5064364;28;20481;-63
2020/12/08 02:52:52;;;;;;;2.87;1.17;;;;;;;5.88;96.74;100007.97;5064935;28;20554;-63
2020/12/08 02:55:20;;;;;;;5.93;1.33;;;;;;;5.88;96.92;100005.28;5065155;28;20466;-63
2020/12/08 02:57:47;;;;;;;1.60;0.90;;;;;;;5.91;96.60;100014.69;5064916;28;20534;-63
2020/12/08 03:00:13;;;;;;;1.13;1.03;;;;;;;5.94;96.28;100016.84;5064664;28;20512;-62
2020/12/08 03:02:39;;;;;;;3.73;1.60;;;;;;;5.97;95.75;100018.94;5064390;28;20442;-63
2020/12/08 03:05:05;;;;;;;2.07;1.90;;;;;;;5.95;95.52;100016.53;5064809;28;20462;-63
2020/12/08 03:07:32;;;;;;;3.23;0.80;;;;;;;5.91;95.47;100028.13;5063838;28;20508;-63
2020/12/08 03:09:58;;;;;;;5.70;2.30;;;;;;;5.98;94.95;100024.06;5058925;28;20438;-66
2020/12/08 03:12:25;;;;;;;3.50;1.37;;;;;;;6.03;94.03;100033.94;5053669;28;20438;-64
2020/12/08 03:14:52;;;;;;;1.80;1.70;;;;;;;6.03;94.01;100037.44;5053925;28;20508;-65
2020/12/08 03:17:18;;;;;;;1.77;1.17;;;;;;;6.05;93.77;100037.13;5057114;28;20507;-66
2020/12/08 03:19:44;;;;;;;1.67;1.40;;;;;;;6.03;93.74;100033.94;5055601;28;20443;-65
2020/12/08 03:22:10;;;;;;;3.13;1.57;;;;;;;6.12;94.08;100037.63;5055815;28;20442;-67
2020/12/08 03:24:36;;;;;;;6.07;1.53;;;;;;;6.16;94.52;100030.59;5055949;28;20503;-66
2020/12/08 03:27:02;;;;;;;3.20;1.43;;;;;;;6.19;95.10;100032.69;5055401;28;20438;-67
2020/12/08 03:29:29;;;;;;;1.13;1.00;;;;;;;6.21;95.67;100035.91;5056374;28;20447;-66
2020/12/08 03:31:56;;;;;;;4.40;1.73;;;;;;;6.22;96.06;100034.03;5056509;28;20484;-66
2020/12/08 03:34:22;;;;;;;2.67;1.20;;;;;;;6.24;96.39;100037.22;5056029;28;21064;-66
2020/12/08 03:36:48;;;;;;;1.57;1.10;;;;;;;6.28;96.53;100030.97;5056500;28;20462;-66
2020/12/08 03:39:16;;;;;;;2.73;1.77;;;;;;;6.33;96.30;100024.75;5056947;28;20472;-66
2020/12/08 03:41:42;;;;;;;1.33;1.23;;;;;;;6.34;96.60;100028.25;5057621;28;20492;-66
2020/12/08 03:44:09;;;;;;;3.10;2.90;;;;;;;6.34;96.50;100025.56;5056897;28;20473;-67
2020/12/08 03:46:36;;;;;;;5.23;1.60;;;;;;;6.40;96.48;100019.03;5057218;28;20688;-66
2020/12/08 03:49:03;;;;;;;0.50;0.40;;;;;;;6.42;96.07;100025.72;5057223;28;21001;-65
2020/12/08 03:51:29;;;;;;;3.37;2.77;;;;;;;6.46;96.05;100029.44;5053934;28;20476;-67
2020/12/08 03:53:55;;;;;;;1.30;1.23;;;;;;;6.49;95.95;100025.38;5054203;28;20490;-67
2020/12/08 03:56:21;;;;;;;1.57;1.47;;;;;;;6.46;95.76;100020.56;5054003;28;20520;-67
2020/12/08 03:58:48;;;;;;;1.07;0.93;;;;;;;6.42;95.44;100020.34;5054500;28;20496;-66
2020/12/08 04:01:16;;;;;;;3.50;1.30;;;;;;;6.44;94.89;100014.69;5054420;28;20439;-67
2020/12/08 04:03:43;;;;;;;18.17;2.43;;;;;;;6.41;94.17;100012.56;5053637;28;20438;-67
2020/12/08 04:06:11;;;;;;;0.77;0.77;;;;;;;6.37;93.85;100012.31;5054868;28;20458;-66
2020/12/08 04:08:37;;;;;;;3.23;2.90;;;;;;;6.37;93.52;100011.53;5055718;28;20446;-66
2020/12/08 04:11:04;;;;;;;1.40;1.30;;;;;;;6.37;93.94;100011.53;5054051;28;20438;-67
2020/12/08 04:13:30;;;;;;;1.03;0.77;;;;;;;6.32;94.25;100015.88;5054820;28;20482;-67
2020/12/08 04:15:56;;;;;;;3.50;1.13;;;;;;;6.37;94.20;100014.22;5056093;28;20454;-66
2020/12/08 04:18:22;;;;;;;15.33;2.57;;;;;;;6.39;94.11;100020.13;5055359;28;20446;-66
2020/12/08 04:20:49;;;;;;;7.80;1.83;;;;;;;6.40;94.65;100019.81;5056998;28;20474;-67
2020/12/08 04:23:17;;;;;;;2.67;1.23;;;;;;;6.43;94.95;100016.56;5057993;28;20438;-66
2020/12/08 04:25:43;;;;;;;3.57;3.10;;;;;;;6.46;94.95;100020.56;5057159;28;20454;-67
2020/12/08 04:28:09;;;;;;;2.70;2.50;;;;;;;6.48;95.07;100013.81;5057545;28;20940;-67
2020/12/08 04:30:36;;;;;;;28.27;2.87;;;;;;;6.49;95.31;100010.03;5057527;28;20519;-67
2020/12/08 04:33:03;;;;;;;1.33;1.07;;;;;;;6.51;95.34;100010.56;5057287;28;20419;-67
2020/12/08 04:35:29;;;;;;;1.67;1.57;;;;;;;6.52;95.17;100016.72;5057468;28;20516;-66
2020/12/08 04:37:56;;;;;;;2.93;1.23;;;;;;;6.51;95.21;100023.22;5057652;28;20499;-66
2020/12/08 04:40:23;;;;;;;3.70;3.40;;;;;;;6.54;95.27;100030.69;5057392;28;20469;-67
2020/12/08 04:42:53;;;;;;;2.50;1.90;;;;;;;6.55;94.96;100029.59;5057444;28;20460;-65
2020/12/08 04:45:21;;;;;;;2.43;2.00;;;;;;;6.58;94.98;100023.63;5057419;28;20466;-67
2020/12/08 04:47:48;;;;;;;1.77;1.37;;;;;;;6.58;94.70;100019.06;5059257;28;20438;-66
2020/12/08 04:50:16;;;;;;;3.73;1.67;;;;;;;6.59;94.78;100022.53;5058869;28;20442;-66
2020/12/08 04:52:43;;;;;;;1.33;1.23;;;;;;;6.56;94.40;100015.06;5057622;28;20794;-66
2020/12/08 04:55:10;;;;;;;3.53;3.03;;;;;;;6.56;93.70;100025.84;5060018;28;20498;-66
2020/12/08 04:57:39;;;;;;;1.43;1.30;;;;;;;6.51;93.09;100018.63;5059650;28;20442;-65
2020/12/08 05:00:07;;;;;;;11.03;2.53;;;;;;;6.50;92.63;100024.28;5058486;28;20488;-66
2020/12/08 05:02:34;;;;;;;1.30;1.20;;;;;;;6.48;92.91;100021.09;5059586;28;20473;-65
2020/12/08 05:05:00;;;;;;;4.60;3.47;;;;;;;6.48;92.85;100029.16;5060235;28;20515;-65
2020/12/08 05:07:27;;;;;;;3.53;1.77;;;;;;;6.42;92.92;100022.22;5059237;28;20438;-66
2020/12/08 05:09:53;;;;;;;6.70;3.03;;;;;;;6.44;92.86;100023.53;5059137;28;20466;-64
2020/12/08 05:12:21;;;;;;;1.63;1.40;;;;;;;6.42;93.37;100030.28;5058876;28;20442;-65
2020/12/08 05:14:47;;;;;;;3.47;2.07;;;;;;;6.47;93.35;100022.19;5058710;28;20481;-64
2020/12/08 05:17:20;;;;;;;1.53;1.07;;;;;;;6.48;93.80;100029.94;5058844;28;20454;-65
2020/12/08 05:19:46;;;;;;;4.87;2.60;;;;;;;6.52;94.15;100030.19;5058599;28;20430;-64
2020/12/08 05:22:13;;;;;;;2.07;1.37;;;;;;;6.51;94.26;100036.66;5058486;28;20450;-65
2020/12/08 05:24:39;;;;;;;1.90;1.50;;;;;;;6.51;94.64;100042.03;5058871;28;20488;-65
2020/12/08 05:27:07;;;;;;;1.73;1.63;;;;;;;6.56;94.47;100037.38;5056596;28;20431;-63
2020/12/08 05:29:35;;;;;;;2.50;1.80;;;;;;;6.59;94.21;100046.75;5062242;28;20438;-63
2020/12/08 05:32:23;;;;;;;2.40;1.20;;;;;;;6.52;94.42;100049.81;5061002;28;20450;-64
2020/12/08 05:34:53;;;;;;;1.50;1.40;;;;;;;6.54;94.30;100044.13;5061380;28;20901;-63
2020/12/08 05:37:19;;;;;;;7.13;3.63;;;;;;;6.56;94.41;100044.66;5061877;28;21030;-64
2020/12/08 05:39:47;;;;;;;5.30;2.90;;;;;;;6.55;94.17;100046.56;5062908;28;20480;-63
2020/12/08 05:42:18;;;;;;;0.60;0.60;;;;;;;6.58;94.03;100045.97;5062559;28;20500;-64
2020/12/08 05:44:48;;;;;;;0.83;0.80;;;;;;;6.64;93.68;100048.59;5063302;28;20442;-63
2020/12/08 05:47:18;;;;;;;1.43;1.33;;;;;;;6.67;93.80;100053.41;5062720;28;20473;-64
2020/12/08 05:49:44;;;;;;;2.00;1.80;;;;;;;6.69;93.00;100052.03;5061643;28;20896;-64
2020/12/08 05:52:11;;;;;;;1.23;1.13;;;;;;;6.62;92.84;100051.56;5061760;28;20434;-64
2020/12/08 05:54:37;;;;;;;2.10;1.40;;;;;;;6.58;92.26;100056.72;5060099;28;20490;-62
2020/12/08 05:57:14;;;;;;;2.00;1.90;;;;;;;6.56;91.71;100053.53;5061878;28;20450;-64
2020/12/08 05:59:41;;;;;;;2.83;0.70;;;;;;;6.54;91.22;100053.00;5062662;28;20502;-63
2020/12/08 06:02:08;;;;;;;7.30;1.60;;;;;;;6.53;91.27;100054.09;5061783;28;20439;-63
2020/12/08 06:04:41;;;;;;;3.80;1.63;;;;;;;6.52;91.56;100051.72;5063227;28;20442;-62
2020/12/08 06:07:08;;;;;;;4.60;1.53;;;;;;;6.49;92.07;100054.97;5064328;28;20445;-62
2020/12/08 06:09:35;;;;;;;9.63;3.60;;;;;;;6.47;92.14;100054.47;5063154;28;20480;-63
2020/12/08 06:12:02;;;;;;;2.70;1.40;;;;;;;6.47;91.62;100059.84;5063711;28;20430;-64
2020/12/08 06:14:33;;;;;;;4.33;3.40;;;;;;;6.47;91.95;100060.63;5061537;28;20524;-64
2020/12/08 06:17:01;;;;;;;5.63;1.87;;;;;;;6.50;92.22;100060.03;5058939;28;20435;-65
2020/12/08 06:19:28;;;;;;;15.43;1.97;;;;;;;6.48;93.00;100067.63;5059730;28;20926;-64
2020/12/08 06:21:54;;;;;;;1.90;1.80;;;;;;;6.50;93.06;100068.13;5059267;28;20537;-65
2020/12/08 06:24:20;;;;;;;11.37;2.23;;;;;;;6.55;93.15;100078.03;5059069;28;20434;-64
2020/12/08 06:26:46;;;;;;;3.77;0.97;;;;;;;6.60;93.08;100079.84;5059110;28;20467;-63
2020/12/08 06:29:13;;;;;;;1.53;1.43;;;;;;;6.65;92.67;100077.13;5059226;28;20465;-64
2020/12/08 06:31:43;;;;;;;1.50;1.40;;;;;;;6.62;92.80;100083.06;5059653;28;20503;-64
2020/12/08 06:34:10;;;;;;;3.40;1.43;;;;;;;6.62;92.53;100078.47;5059177;28;20567;-65
2020/12/08 06:36:37;;;;;;;6.77;3.63;;;;;;;6.60;92.52;100083.38;5059144;28;20491;-63
2020/12/08 06:39:06;;;;;;;1.10;0.87;;;;;;;6.57;92.60;100086.63;5059927;28;20442;-64
2020/12/08 06:41:34;;;;;;;1.47;1.37;;;;;;;6.57;92.58;100083.94;5060658;28;20450;-64
2020/12/08 06:44:01;;;;;;;3.60;1.63;;;;;;;6.58;92.41;100082.84;5058492;28;20438;-64
2020/12/08 06:46:27;;;;;;;2.23;2.03;;;;;;;6.56;92.59;100076.94;5059822;28;20461;-64
2020/12/08 06:49:02;;;;;;;1.97;1.50;;;;;;;6.50;92.01;100078.06;5062568;28;20997;-63
2020/12/08 06:51:30;;;;;;;3.73;2.00;;;;;;;6.52;91.52;100089.38;5062133;28;20430;-64
2020/12/08 06:53:57;;;;;;;3.03;1.40;;;;;;;6.46;91.36;100091.31;5061362;28;20551;-64
2020/12/08 06:56:30;;;;;;;4.63;1.10;;;;;;;6.34;91.22;100093.59;5060910;28;20822;-64
2020/12/08 06:58:57;;;;;;;4.10;2.10;;;;;;;6.34;90.88;100092.81;5059539;28;20510;-63
2020/12/08 07:01:23;;;;;;;3.50;3.20;;;;;;;6.32;91.14;100099.25;5060046;28;20795;-64
2020/12/08 07:03:50;;;;;;;6.60;1.77;;;;;;;6.29;91.62;100113.28;5062226;28;20434;-63
2020/12/08 07:06:17;;;;;;;1.27;1.17;;;;;;;6.30;91.56;100112.19;5054161;28;20458;-65
2020/12/08 07:08:46;;;;;;;2.43;1.63;;;;;;;6.31;91.14;100113.00;5053908;28;20995;-63
2020/12/08 07:11:19;;;;;;;3.83;3.53;;;;;;;6.21;91.17;100115.78;5053972;28;20442;-63
2020/12/08 07:13:56;;;;;;;1.37;1.33;;;;;;;6.22;90.97;100118.19;5059311;28;21010;-65
2020/12/08 07:16:25;;;;;;;2.20;1.53;;;;;;;6.23;91.69;100114.41;5058915;28;20848;-65
2020/12/08 07:18:52;;;;;;;5.47;3.73;;;;;;;6.30;92.23;100114.88;5059989;28;20516;-64
2020/12/08 07:21:19;;;;;;;2.30;1.60;;;;;;;6.32;92.70;100115.38;5058509;28;20434;-65
2020/12/08 07:23:45;;;;;;;1.80;1.70;;;;;;;6.38;92.58;100124.22;5061132;28;20957;-64
2020/12/08 07:26:13;;;;;;;5.97;1.37;;;;;;;6.43;92.35;100124.16;5089296;22;20494;-71
2020/12/08 07:28:40;;;;;;;11.90;4.83;;;;;;;6.45;92.31;100121.19;5073655;28;20813;-71
2020/12/08 07:31:17;;;;;;;3.33;1.13;;;;;;;6.47;92.41;100125.22;5071807;28;20857;-69
2020/12/08 07:33:43;;;;;;;2.30;1.93;;;;;;;6.46;92.35;100125.47;5073511;28;20472;-71
2020/12/08 07:36:20;;;;;;;1.23;1.13;;;;;;;6.47;92.06;100127.91;5054737;28;20955;-71
2020/12/08 07:38:50;;;;;;;5.53;4.97;;;;;;;6.49;92.44;100127.59;5054138;28;20446;-71
2020/12/08 07:41:18;;;;;;;8.93;1.90;;;;;;;6.51;92.18;100130.81;5053092;28;20442;-71
2020/12/08 07:43:45;;;;;;;0.80;0.70;;;;;;;6.54;91.92;100141.78;5053055;28;20496;-71
2020/12/08 07:46:11;;;;;;;5.13;1.53;;;;;;;6.58;91.73;100137.44;5053268;28;20458;-71
2020/12/08 07:48:37;;;;;;;2.07;1.77;;;;;;;6.64;91.37;100134.69;5053029;28;20441;-71
2020/12/08 07:51:03;;;;;;;3.03;2.83;;;;;;;6.63;90.98;100138.47;5053204;28;20916;-70
2020/12/08 07:53:35;;;;;;;1.33;1.23;;;;;;;6.65;90.25;100144.41;5052735;28;20468;-69
2020/12/08 07:56:01;;;;;;;4.03;3.07;;;;;;;6.68;89.24;100133.84;5052733;28;20469;-71
2020/12/08 07:58:28;;;;;;;1.43;1.13;;;;;;;6.68;88.51;100141.91;5053122;28;20474;-71
2020/12/08 08:00:56;;;;;;;4.00;1.33;;;;;;;6.69;88.67;100140.84;5052873;28;21044;-70
2020/12/08 08:03:23;;;;;;;4.30;1.73;;;;;;;6.63;89.19;100146.56;5052855;28;20931;-70
2020/12/08 08:05:50;;;;;;;1.17;1.07;;;;;;;6.63;89.08;100143.88;5053090;28;20462;-70
2020/12/08 08:08:16;;;;;;;2.20;1.43;;;;;;;6.66;88.88;100149.47;5052735;28;20434;-71
2020/12/08 08:10:42;;;;;;;3.23;2.90;;;;;;;6.67;89.23;100153.78;5053117;28;20445;-70
2020/12/08 08:13:09;;;;;;;0.90;0.90;;;;;;;6.69;89.14;100146.22;5052790;28;20533;-70
2020/12/08 08:15:35;;;;;;;3.40;2.07;;;;;;;6.73;89.47;100154.50;5052917;28;20485;-70
2020/12/08 08:18:05;;;;;;;3.03;1.43;;;;;;;6.75;89.83;100149.66;5053427;28;20846;-69
2020/12/08 08:20:31;;;;;;;8.73;2.03;;;;;;;6.76;89.84;100154.75;5053579;28;20430;-70
2020/12/08 08:22:58;;;;;;;2.03;1.60;;;;;;;6.82;89.84;100150.94;5052576;28;20442;-70
2020/12/08 08:25:24;;;;;;;3.50;0.77;;;;;;;6.79;89.79;100151.50;5052517;28;20466;-70
2020/12/08 08:27:50;;;;;;;6.27;3.47;;;;;;;6.80;89.76;100157.69;5052986;28;20425;-70
2020/12/08 08:30:17;;;;;;;0.90;0.90;;;;;;;6.80;89.76;100155.78;5052831;28;20457;-71
2020/12/08 08:32:43;;;;;;;2.83;2.60;;;;;;;6.84;89.67;100158.72;5052903;28;20434;-70
2020/12/08 08:35:10;;;;;;;3.10;2.23;;;;;;;6.83;89.73;100160.59;5052723;28;20486;-71
2020/12/08 08:37:36;;;;;;;2.83;1.60;;;;;;;6.91;89.44;100164.56;5053051;28;20442;-70
2020/12/08 08:40:03;;;;;;;1.00;0.90;;;;;;;6.91;89.54;100169.94;5052785;28;20438;-70
2020/12/08 08:42:30;;;;;;;1.13;1.03;;;;;;;7.02;88.74;100173.31;5052788;28;20447;-71
2020/12/08 08:44:56;;;;;;;9.67;2.80;;;;;;;7.06;88.60;100175.13;5052922;28;20438;-71
2020/12/08 08:47:23;;;;;;;0.93;0.83;;;;;;;7.08;88.28;100172.16;5052750;28;20492;-70
2020/12/08 08:49:49;;;;;;;1.33;1.23;;;;;;;7.04;88.01;100171.16;5052721;28;20446;-71
2020/12/08 08:52:16;;;;;;;6.03;2.00;;;;;;;6.88;88.45;100169.72;5052673;28;20504;-74
2020/12/08 08:54:42;;;;;;;2.50;1.50;;;;;;;6.77;88.75;100166.31;5052231;28;20518;-71
2020/12/08 08:57:08;;;;;;;3.83;3.47;;;;;;;6.77;88.65;100159.06;5052286;28;20988;-71
2020/12/08 08:59:34;;;;;;;2.20;1.67;;;;;;;6.76;88.67;100159.34;5052251;28;21003;-72
2020/12/08 09:02:00;;;;;;;3.07;1.80;;;;;;;6.75;88.58;100158.53;5051940;28;21001;-71
2020/12/08 09:04:26;;;;;;;13.50;2.07;;;;;;;6.71;88.72;100157.50;5052259;28;20446;-71
2020/12/08 09:06:53;;;;;;;1.60;0.80;;;;;;;6.70;88.63;100165.88;5055131;28;21060;-72
2020/12/08 09:09:20;;;;;;;3.03;1.47;;;;;;;6.68;88.70;100163.44;5056183;28;20499;-71
2020/12/08 09:11:46;;;;;;;2.00;1.67;;;;;;;6.56;88.95;100166.53;5055854;28;20902;-72
2020/12/08 09:14:12;;;;;;;2.20;1.87;;;;;;;6.51;89.32;100165.81;5056046;28;20481;-71
2020/12/08 09:16:39;;;;;;;11.47;5.93;;;;;;;6.48;89.00;100156.41;5056083;28;20576;-72
2020/12/08 09:19:06;;;;;;;2.10;2.00;;;;;;;6.38;89.20;100159.19;5055655;28;20869;-71
2020/12/08 09:21:32;;;;;;;6.60;3.60;;;;;;;6.43;89.35;100164.53;5056269;28;20441;-71
2020/12/08 09:23:58;;;;;;;8.83;2.27;;;;;;;6.44;89.08;100163.44;5055930;28;20487;-71
2020/12/08 09:26:25;;;;;;;1.03;0.90;;;;;;;6.45;88.75;100162.34;5055493;28;20592;-71
2020/12/08 09:28:51;;;;;;;4.73;1.80;;;;;;;6.45;88.68;100167.72;5055825;28;20442;-71
2020/12/08 09:31:18;;;;;;;2.20;2.00;;;;;;;6.46;88.74;100166.66;5055857;28;20442;-71
2020/12/08 09:33:46;;;;;;;3.37;2.93;;;;;;;6.38;88.74;100167.25;5055453;28;20543;-71
2020/12/08 09:36:12;;;;;;;1.73;1.63;;;;;;;6.39;88.66;100176.94;5055623;28;20502;-72
2020/12/08 09:38:38;;;;;;;0.97;0.97;;;;;;;6.36;88.92;100172.09;5055715;28;20442;-70
2020/12/08 09:41:04;;;;;;;2.10;2.00;;;;;;;6.36;88.52;100177.47;5055212;28;20856;-71
2020/12/08 09:43:31;;;;;;;2.67;2.30;;;;;;;6.41;87.97;100174.75;5055575;28;20438;-72
2020/12/08 09:45:58;;;;;;;2.30;2.13;;;;;;;6.42;87.64;100172.84;5055426;28;20862;-70
2020/12/08 09:48:24;;;;;;;2.63;1.17;;;;;;;6.40;87.64;100177.72;5055388;28;20472;-71
2020/12/08 09:50:50;;;;;;;1.77;1.67;;;;;;;6.38;87.33;100169.94;5055009;28;20500;-71
2020/12/08 09:53:16;;;;;;;2.80;1.60;;;;;;;6.37;87.69;100168.31;5055316;28;20438;-69
2020/12/08 09:55:43;;;;;;;2.00;1.90;;;;;;;6.32;87.89;100176.44;5055198;28;20520;-70
2020/12/08 09:58:10;;;;;;;1.57;1.33;;;;;;;6.31;88.52;100180.22;5055154;28;20443;-72
2020/12/08 10:00:37;;;;;;;2.97;1.70;;;;;;;6.40;88.38;100183.91;5054847;28;21116;-71
2020/12/08 10:03:03;;;;;;;6.03;1.80;;;;;;;6.48;88.36;100177.13;5054819;28;20477;-71
2020/12/08 10:05:29;;;;;;;7.40;2.60;;;;;;;6.52;88.32;100180.84;5055076;28;20511;-71
2020/12/08 10:07:56;;;;;;;3.20;2.57;;;;;;;6.55;87.74;100180.25;5055128;28;20492;-71
2020/12/08 10:10:22;;;;;;;3.67;2.73;;;;;;;6.53;87.46;100177.06;5055212;28;20454;-71
2020/12/08 10:12:49;;;;;;;2.00;1.90;;;;;;;6.58;86.83;100180.50;5054590;28;20928;-71
2020/12/08 10:15:17;;;;;;;5.10;4.50;;;;;;;6.61;86.69;100168.38;5054278;28;20990;-71
2020/12/08 10:17:44;;;;;;;7.37;2.57;;;;;;;6.62;85.74;100174.56;5053842;28;20532;-71
2020/12/08 10:20:10;;;;;;;2.30;1.27;;;;;;;6.57;85.45;100176.22;5054773;28;20449;-71
2020/12/08 10:22:36;;;;;;;2.70;0.67;;;;;;;6.57;86.00;100176.22;5054801;28;20430;-71
2020/12/08 10:25:03;;;;;;;2.40;1.37;;;;;;;6.65;86.09;100182.88;5054360;28;20434;-71
2020/12/08 10:27:29;;;;;;;6.73;1.83;;;;;;;6.70;85.12;100171.25;5054486;28;20481;-71
2020/12/08 10:29:55;;;;;;;3.00;1.73;;;;;;;6.69;85.54;100165.06;5054750;28;20529;-71
2020/12/08 10:32:21;;;;;;;3.90;1.60;;;;;;;6.72;84.88;100161.78;5054629;28;20443;-71
2020/12/08 10:34:48;;;;;;;4.27;1.73;;;;;;;6.78;84.57;100168.75;5054543;28;20514;-71
2020/12/08 10:37:15;;;;;;;1.77;1.67;;;;;;;6.80;84.94;100168.44;5054526;28;20462;-71
2020/12/08 10:39:41;;;;;;;3.23;1.60;;;;;;;6.82;84.78;100159.00;5054270;28;20447;-71
2020/12/08 10:42:07;;;;;;;10.63;2.90;;;;;;;6.89;84.91;100168.63;5054291;28;20512;-71
2020/12/08 10:44:33;;;;;;;0.90;0.90;;;;;;;6.94;85.16;100168.56;5054115;28;20997;-71
2020/12/08 10:46:59;;;;;;;3.90;1.73;;;;;;;7.00;85.33;100168.22;5053938;28;21042;-71
2020/12/08 10:49:25;;;;;;;3.33;2.90;;;;;;;7.12;85.31;100181.25;5054289;28;20439;-71
2020/12/08 10:51:52;;;;;;;2.53;2.10;;;;;;;7.17;85.22;100181.22;5054302;28;20504;-71
2020/12/08 10:54:19;;;;;;;0.60;0.50;;;;;;;7.25;84.64;100175.19;5054135;28;20531;-71
2020/12/08 10:56:49;;;;;;;4.10;3.80;;;;;;;7.25;84.27;100172.47;5053772;28;20494;-71
2020/12/08 10:59:15;;;;;;;3.93;3.40;;;;;;;7.31;83.93;100165.94;5053833;28;20861;-71
2020/12/08 11:01:41;;;;;;;1.17;1.10;;;;;;;7.34;84.17;100173.44;5054083;28;20442;-71
2020/12/08 11:04:08;;;;;;;2.07;1.53;;;;;;;7.42;83.97;100179.28;5053972;28;20503;-71
2020/12/08 11:06:34;;;;;;;5.90;2.13;;;;;;;7.50;83.91;100160.56;5054002;28;20458;-71
2020/12/08 11:09:01;;;;;;;1.57;1.40;;;;;;;7.63;83.17;100167.13;5053989;28;20526;-71
2020/12/08 11:11:28;;;;;;;1.37;1.27;;;;;;;7.66;82.50;100166.56;5053877;28;20454;-71
2020/12/08 11:13:55;;;;;;;8.53;2.87;;;;;;;7.77;82.28;100165.31;5053760;28;20810;-71
2020/12/08 11:16:23;;;;;;;4.43;2.90;;;;;;;7.84;82.28;100167.66;5053425;28;20959;-71
2020/12/08 11:18:50;;;;;;;4.70;3.40;;;;;;;7.92;81.89;100158.06;5053467;28;20443;-71
2020/12/08 11:21:22;;;;;;;4.87;1.97;;;;;;;7.99;80.75;100164.69;5053491;28;20932;-71
2020/12/08 11:23:48;;;;;;;4.00;3.53;;;;;;;8.07;79.49;100163.25;5053770;28;20480;-71
2020/12/08 11:26:15;;;;;;;2.40;1.00;;;;;;;8.13;79.45;100162.03;5053172;28;21056;-72
2020/12/08 11:28:41;;;;;;;6.00;1.50;;;;;;;8.10;78.62;100162.63;5053129;28;20466;-71
2020/12/08 11:31:08;;;;;;;2.60;1.90;;;;;;;8.07;79.10;100166.72;5053619;28;20443;-70
2020/12/08 11:33:34;;;;;;;5.37;2.67;;;;;;;8.49;77.78;100172.25;5053583;28;20477;-70